Sherman, TX

1:02 PM CDT en Octubre 24, 2014 (GMT -0500)
SE Jct 56/11 | Change Station
CLOSE
Current Station
Estación meteorológica personal
Location: Sherman, TX
Altura: 746 ft
Estaciones meteorológicas cercanas

Alt 746 ft 33.63 °N, 96.58 °W | Updated 2 minutes ago

Despejado
Despejado
78.1 ° F
Sensación térmica 80 ° F
N
4.0
Viento Variable Viento desde SE
Gusts 7.0 mph

Hoy
Alta -- | Baja -- ° F
--% Posibilidad de precipitaciones
Ayer
Alta -- | Baja -- ° F
Precip. -- pul
7:38 AM 6:42 PM
Luna nueva, 1% visible
Presión 30.14 pul
Visibilidad 10.0 Millas
Nubes Despejado
Índice de calor 80 ° F
Punto de rocío 61 ° F
Humedad 56%
Precipitaciones 0.00 pul
Espesor de la nieve No disponible.
UV 6 de una escala de 12
Polen 5.10 de una escala de 12
Calidad del aire No disponible.
Flu Activity Sporadic
METAR KGYI 241755Z AUTO 19009G14KT 10SM CLR 26/17 A3014 RMK AO2 T02560167 10258 20154

More Conditions Fewer Conditions

Presión 30.14 pul
Visibilidad 10.0 Millas
Nubes Despejado
Índice de calor 80 ° F
Punto de rocío 61 ° F
Humedad 56%
Precipitaciones 0.00 pul
Espesor de la nieve No disponible.
UV 6 de una escala de 12
Polen 5.10 de una escala de 12
Calidad del aire No disponible.
Flu Activity Sporadic
METAR KGYI 241755Z AUTO 19009G14KT 10SM CLR 26/17 A3014 RMK AO2 T02560167 10258 20154

More Conditions Fewer Conditions

10-Day Weather Forecast

Almanac

Astronomía

Oct. 24, 2014 Salida Puesta
Hora real 7:38 AM CDT 6:42 PM CDT
Crepúsculo civil 7:13 AM CDT 7:07 PM CDT
Crepúsculo náutico 6:43 AM CDT 7:36 PM CDT
Crepúsculo astronómico 6:15 AM CDT 8:05 PM CDT
Luna 8:17 AM CDT 7:25 PM CDT
Horas de luz 11h 54m
Horas de luz
11h 03m
Tomorrow will be 1m 56s shorter.
Luna nueva, 1% of the Moon is Illuminated
Hoy
Luna nueva
Oct 30
Cuarto creciente
Nov 6
Luna llena
Nov 14
Cuarto menguante
Nov 22
Nueva

Extremos de hoy

Máximos del estado Bajos del estado

Community

WunderPhotos

Upload Photos

1,764,628 ¡fotos cargadas!

Nearby

Grosos de nieve

Estación Profundido Altura
No tenemos constancia de nieve nueva.

Actividad de terremotos

Ciudad Distance Mag. Tiempo y dato
Luther, Oklahoma 139 Millas 2.5 10:36 PM CDT
2014-10-22
Magnitud mínima muestra es 2,5.

Temperaturas de aguas costeras

Lugar Temperatura
Sin partes meteorológicos de las estaciones

Estaciones meteorológicas cercanas